Gulf — V2BB5 — position and weather

sailwx.info

Track history (hours):
 
Tides and Currents Weather Stations Pressure Air Temp Water Temp Dewpoint Dewpoint Depression Visibility Wind Speed Wind Dir Waves Ship Positions

Gulf

Last reported at 2016-Jan-31 07:22 UTC. Time now 2016-Feb-09 20:42 UTC.
Position N 38°48' E 009°17'.
Warning: this ship's position is 9 days out of date.

Length 96 m; draft 5.5 m.

Type: Cargo ship. MMSI: 304320000.

Date/timePositionNaut miles runAvg speedWind from/ knotsBaromVisibWave heightAir tempDewpointWater temp
2016-Jan-31 07:22N 38°48' E 009°17'8 8.8
2016-Jan-31 06:27N 38°53' E 009°24'267 8.8
2016-Jan-30 00:19N 43°19' E 009°43'6 8.6
2016-Jan-29 23:33N 43°26' E 009°44'9 8.5
2016-Jan-29 22:33N 43°34' E 009°46'8 8.4
2016-Jan-29 21:33N 43°42' E 009°49'9 8.8
2016-Jan-29 20:33N 43°51' E 009°51'7 6.8
2016-Jan-29 19:33N 43°57' E 009°54'9 8.6
2016-Jan-29 18:33N 44°06' E 009°50'1 1.0
2016-Jan-29 17:33N 44°06' E 009°50'0 0.0
2016-Jan-29 16:33N 44°06' E 009°50'0 0.0
2016-Jan-29 15:33N 44°06' E 009°50'0 0.0
2016-Jan-29 14:33N 44°06' E 009°50'0 0.0
2016-Jan-29 13:33N 44°06' E 009°50'0 0.0
2016-Jan-29 12:33N 44°06' E 009°50'0 0.0
2016-Jan-29 11:33N 44°06' E 009°50'0 0.0
2016-Jan-29 10:33N 44°06' E 009°50'0 0.0
2016-Jan-29 09:33N 44°06' E 009°50'0 0.0
2016-Jan-29 08:33N 44°06' E 009°50'0 0.0
2016-Jan-29 07:33N 44°06' E 009°50'0 0.0
2016-Jan-29 06:33N 44°06' E 009°50'0 0.0
2016-Jan-29 05:33N 44°06' E 009°50'0 0.0
2016-Jan-29 04:33N 44°06' E 009°50'0 0.0
2016-Jan-29 03:33N 44°06' E 009°50'0 0.0
2016-Jan-29 02:30N 44°06' E 009°50'0 0.0
2016-Jan-29 01:33N 44°06' E 009°50'0 0.0
2016-Jan-29 00:33N 44°06' E 009°50'0 0.0
2016-Jan-28 23:33N 44°06' E 009°50'0 0.0
2016-Jan-28 22:33N 44°06' E 009°50'0 0.0
2016-Jan-28 21:33N 44°06' E 009°50'0 0.0
2016-Jan-28 20:33N 44°06' E 009°50'0 0.0
2016-Jan-28 19:33N 44°06' E 009°50'0 0.0
2016-Jan-28 18:33N 44°06' E 009°50'0 0.0
2016-Jan-28 17:33N 44°06' E 009°50'0 0.0
2016-Jan-28 16:33N 44°06' E 009°50'0 0.0
2016-Jan-28 15:33N 44°06' E 009°50'0 0.0
2016-Jan-28 14:33N 44°06' E 009°50'0 0.0
2016-Jan-28 13:33N 44°06' E 009°50'0 0.0
2016-Jan-28 12:33N 44°06' E 009°50'0 0.0
2016-Jan-28 11:33N 44°06' E 009°50'0 0.0
2016-Jan-28 10:33N 44°06' E 009°50'0 0.0
2016-Jan-28 09:33N 44°06' E 009°50'0 0.0
2016-Jan-28 08:33N 44°06' E 009°50'0 0.0
2016-Jan-28 07:33N 44°06' E 009°50'0 0.0
2016-Jan-28 06:33N 44°06' E 009°50'0 0.1
2016-Jan-28 05:34N 44°06' E 009°50'3 3.2
2016-Jan-28 04:30N 44°03' E 009°52'0 0.0
2016-Jan-28 03:33N 44°03' E 009°52'0 0.0
2016-Jan-28 02:33N 44°03' E 009°52'0 0.0
2016-Jan-28 01:33N 44°03' E 009°52'0 0.0
2016-Jan-28 00:33N 44°03' E 009°52'0 0.0
2016-Jan-27 23:33N 44°03' E 009°52'0 0.0
2016-Jan-27 22:33N 44°03' E 009°52'0 0.0
2016-Jan-27 21:33N 44°03' E 009°52'0 0.0
2016-Jan-27 20:33N 44°03' E 009°52'0 0.1
2016-Jan-27 19:33N 44°03' E 009°52'5 5.0
2016-Jan-27 18:33N 43°58' E 009°54'1010.0
2016-Jan-27 17:33N 43°49' E 009°50'1010.4
2016-Jan-27 16:33N 43°39' E 009°47'1010.5
2016-Jan-27 15:33N 43°28' E 009°45'1110.4
2016-Jan-27 14:32N 43°18' E 009°42'  
Track history (hours):
 
Tides and Currents Weather Stations Pressure Air Temp Water Temp Dewpoint Dewpoint Depression Visibility Wind Speed Wind Dir Waves Ship Positions

Gulf

Last reported at 2016-Jan-31 07:22 UTC. Time now 2016-Feb-09 20:42 UTC.
Position N 38°48' E 009°17'.
Warning: this ship's position is 9 days out of date.

Length 96 m; draft 5.5 m.

Type: Cargo ship. MMSI: 304320000.

Date/timePositionNaut miles runAvg speedWind from/ knotsBaromVisibWave heightAir tempDewpointWater temp
2016-Jan-31 07:22N 38°48' E 009°17'8 8.8
2016-Jan-31 06:27N 38°53' E 009°24'267 8.8
2016-Jan-30 00:19N 43°19' E 009°43'6 8.6
2016-Jan-29 23:33N 43°26' E 009°44'9 8.5
2016-Jan-29 22:33N 43°34' E 009°46'8 8.4
2016-Jan-29 21:33N 43°42' E 009°49'9 8.8
2016-Jan-29 20:33N 43°51' E 009°51'7 6.8
2016-Jan-29 19:33N 43°57' E 009°54'9 8.6
2016-Jan-29 18:33N 44°06' E 009°50'1 1.0
2016-Jan-29 17:33N 44°06' E 009°50'0 0.0
2016-Jan-29 16:33N 44°06' E 009°50'0 0.0
2016-Jan-29 15:33N 44°06' E 009°50'0 0.0
2016-Jan-29 14:33N 44°06' E 009°50'0 0.0
2016-Jan-29 13:33N 44°06' E 009°50'0 0.0
2016-Jan-29 12:33N 44°06' E 009°50'0 0.0
2016-Jan-29 11:33N 44°06' E 009°50'0 0.0
2016-Jan-29 10:33N 44°06' E 009°50'0 0.0
2016-Jan-29 09:33N 44°06' E 009°50'0 0.0
2016-Jan-29 08:33N 44°06' E 009°50'0 0.0
2016-Jan-29 07:33N 44°06' E 009°50'0 0.0
2016-Jan-29 06:33N 44°06' E 009°50'0 0.0
2016-Jan-29 05:33N 44°06' E 009°50'0 0.0
2016-Jan-29 04:33N 44°06' E 009°50'0 0.0
2016-Jan-29 03:33N 44°06' E 009°50'0 0.0
2016-Jan-29 02:30N 44°06' E 009°50'0 0.0
2016-Jan-29 01:33N 44°06' E 009°50'0 0.0
2016-Jan-29 00:33N 44°06' E 009°50'0 0.0
2016-Jan-28 23:33N 44°06' E 009°50'0 0.0
2016-Jan-28 22:33N 44°06' E 009°50'0 0.0
2016-Jan-28 21:33N 44°06' E 009°50'0 0.0
2016-Jan-28 20:33N 44°06' E 009°50'0 0.0
2016-Jan-28 19:33N 44°06' E 009°50'0 0.0
2016-Jan-28 18:33N 44°06' E 009°50'0 0.0
2016-Jan-28 17:33N 44°06' E 009°50'0 0.0
2016-Jan-28 16:33N 44°06' E 009°50'0 0.0
2016-Jan-28 15:33N 44°06' E 009°50'0 0.0
2016-Jan-28 14:33N 44°06' E 009°50'0 0.0
2016-Jan-28 13:33N 44°06' E 009°50'0 0.0
2016-Jan-28 12:33N 44°06' E 009°50'0 0.0
2016-Jan-28 11:33N 44°06' E 009°50'0 0.0
2016-Jan-28 10:33N 44°06' E 009°50'0 0.0
2016-Jan-28 09:33N 44°06' E 009°50'0 0.0
2016-Jan-28 08:33N 44°06' E 009°50'0 0.0
2016-Jan-28 07:33N 44°06' E 009°50'0 0.0
2016-Jan-28 06:33N 44°06' E 009°50'0 0.1
2016-Jan-28 05:34N 44°06' E 009°50'3 3.2
2016-Jan-28 04:30N 44°03' E 009°52'0 0.0
2016-Jan-28 03:33N 44°03' E 009°52'0 0.0
2016-Jan-28 02:33N 44°03' E 009°52'0 0.0
2016-Jan-28 01:33N 44°03' E 009°52'0 0.0
2016-Jan-28 00:33N 44°03' E 009°52'0 0.0
2016-Jan-27 23:33N 44°03' E 009°52'0 0.0
2016-Jan-27 22:33N 44°03' E 009°52'0 0.0
2016-Jan-27 21:33N 44°03' E 009°52'0 0.0
2016-Jan-27 20:33N 44°03' E 009°52'0 0.1
2016-Jan-27 19:33N 44°03' E 009°52'5 5.0
2016-Jan-27 18:33N 43°58' E 009°54'1010.0
2016-Jan-27 17:33N 43°49' E 009°50'1010.4
2016-Jan-27 16:33N 43°39' E 009°47'1010.5
2016-Jan-27 15:33N 43°28' E 009°45'1110.4
2016-Jan-27 14:32N 43°18' E 009°42'  

Dump ship's entire track history